Time;durP1;ratioP1;P1;durP2;ratioP2;P2;SDS_P1;SDS_P2;PMS_P1;PMS_P2;Temp;Humidity;BMP_temperature;BMP_pressure;BME280_temperature;BME280_humidity;BME280_pressure;Samples;Min_cycle;Max_cycle;Signal;HPM_P1;HPM_P2
2023/08/31 00:01:01;;;;;;;4.85;0.70;;;;;;;;;;5072091;28;20527;-62
2023/08/31 00:03:27;;;;;;;2.30;1.10;;;;;;;;;;5072330;28;20583;-61
2023/08/31 00:05:53;;;;;;;5.75;1.15;;;;;;;;;;5073173;28;20042;-60
2023/08/31 00:08:22;;;;;;;6.30;0.85;;;;;;;;;;5055312;28;20484;-60
2023/08/31 00:10:55;;;;;;;3.47;0.70;;;;;;;;;;5053555;28;20390;-60
2023/08/31 00:13:21;;;;;;;3.22;0.90;;;;;;;;;;5054475;28;20493;-60
2023/08/31 00:15:47;;;;;;;4.57;0.63;;;;;;;;;;5071993;28;20044;-60
2023/08/31 00:18:16;;;;;;;3.13;0.77;;;;;;;;;;5071512;28;20044;-61
2023/08/31 00:20:42;;;;;;;4.28;0.80;;;;;;;;;;5054330;28;20048;-60
2023/08/31 00:23:08;;;;;;;2.60;0.77;;;;;;;;;;5072471;28;20048;-60
2023/08/31 00:25:34;;;;;;;5.20;0.73;;;;;;;;;;5053690;28;20489;-61
2023/08/31 00:28:04;;;;;;;3.05;0.82;;;;;;;;;;5053411;28;20036;-60
2023/08/31 00:30:33;;;;;;;1.98;0.60;;;;;;;;;;5071333;28;20522;-60
2023/08/31 00:33:00;;;;;;;1.85;0.60;;;;;;;;;;5047411;28;20459;-60
2023/08/31 00:35:27;;;;;;;2.58;0.52;;;;;;;;;;5070559;28;20041;-60
2023/08/31 00:37:57;;;;;;;1.10;0.65;;;;;;;;;;5054090;28;20374;-60
2023/08/31 00:40:23;;;;;;;;;;;11.70;99.90;;;;;;5071966;28;20078;-61
2023/08/31 00:42:49;;;;;;;3.13;0.50;;;;;;;;;;5069633;28;20008;-60
2023/08/31 00:45:15;;;;;;;1.75;0.70;;;;;;;;;;5056383;28;20055;-61
2023/08/31 00:47:42;;;;;;;5.28;0.90;;;;;;;;;;5071099;28;20044;-60
2023/08/31 00:50:08;;;;;;;3.50;1.05;;;;;;;;;;5071140;28;20054;-60
2023/08/31 00:52:34;;;;;;;2.38;0.80;;;;;;;;;;5045826;28;20063;-61
2023/08/31 00:55:01;;;;;;;3.53;0.70;;;;;;;;;;5049585;28;20460;-61
2023/08/31 00:57:30;;;;;;;4.78;0.70;;;;;;;;;;5072149;28;20043;-60
2023/08/31 00:59:56;;;;;;;3.08;0.70;;;;;;;;;;5036649;28;20060;-60
2023/08/31 01:02:38;;;;;;;3.25;0.82;;;;;;;;;;5072336;28;20048;-60
2023/08/31 01:05:22;;;;;;;2.78;0.75;;;;;;;;;;5069435;28;20055;-61
2023/08/31 01:08:01;;;;;;;4.22;1.10;;;;;;;;;;5066155;28;20496;-60
2023/08/31 01:10:33;;;;;;;4.25;1.77;;;;;;;;;;5037464;28;20064;-60
2023/08/31 01:13:02;;;;;;;3.08;1.00;;;;;;;;;;5054028;28;20127;-60
2023/08/31 01:15:31;;;;;;;3.00;0.80;;;;;;;;;;5070943;28;20052;-60
2023/08/31 01:17:57;;;;;;;3.47;0.70;;;;;;;;;;5070810;28;20097;-60
2023/08/31 01:20:29;;;;;;;7.03;0.90;;;;;;;;;;5069945;28;20049;-60
2023/08/31 01:22:58;;;;;;;2.70;0.85;;;;;;;;;;5070624;28;20094;-60
2023/08/31 01:25:24;;;;;;;2.50;0.82;;;;;;;;;;5036866;28;20080;-60
2023/08/31 01:27:51;;;;;;;1.52;0.73;;;;;;;;;;5052350;28;20051;-60
2023/08/31 01:30:17;;;;;;;3.80;0.93;;;;;;;;;;5067534;28;20131;-61
2023/08/31 01:32:46;;;;;;;4.43;0.80;;;;;;;;;;5071171;28;20047;-60
2023/08/31 01:35:13;;;;;;;3.60;0.70;;;;;;;;;;5070348;28;20842;-60
2023/08/31 01:37:40;;;;;;;4.38;0.90;;;;;;;;;;5053187;28;20106;-60
2023/08/31 01:40:13;;;;;;;3.97;0.80;;;;;;;;;;5070546;28;20111;-60
2023/08/31 01:42:41;;;;;;;0.82;0.45;;;;;;;;;;5069222;28;20071;-60
2023/08/31 01:45:08;;;;;;;1.23;0.60;;;;;;;;;;5051489;28;20045;-60
2023/08/31 01:47:34;;;;;;;3.40;0.70;;;;;;;;;;5068627;28;20049;-61
2023/08/31 01:50:00;;;;;;;4.15;1.02;;;;;;;;;;5053432;28;20120;-60
2023/08/31 01:52:26;;;;;;;3.42;0.70;;;;;;;;;;5053041;28;20123;-61
2023/08/31 01:54:52;;;;;;;2.65;0.90;;;;;;;;;;5036065;28;20049;-59
2023/08/31 01:57:18;;;;;;;2.30;0.68;;;;;;;;;;5070076;28;20041;-59
2023/08/31 01:59:44;;;;;;;3.10;0.60;;;;;;;;;;5071015;28;20059;-60
2023/08/31 02:02:10;;;;;;;2.63;0.60;;;;;;;;;;5068863;28;20048;-60
2023/08/31 02:04:36;;;;;;;2.17;0.52;;;;;;;;;;5043769;28;20065;-60
2023/08/31 02:07:03;;;;;;;5.63;1.00;;;;;;;;;;5042471;28;20061;-61
2023/08/31 02:09:29;;;;;;;3.35;0.88;;;;;;;;;;5040331;28;20048;-60
2023/08/31 02:11:55;;;;;;;1.60;0.77;;;;;;;;;;5033478;28;20097;-60
2023/08/31 02:14:22;;;;;;;3.28;0.70;;;;;;;;;;5044003;28;20044;-60
2023/08/31 02:16:48;;;;;;;3.67;0.90;;;;;;;;;;5026720;28;20041;-60
2023/08/31 02:19:14;;;;;;;2.63;0.85;;;;;;;;;;5030110;28;20044;-60
2023/08/31 02:21:40;;;;;;;1.45;0.68;;;;;;;;;;5049889;28;20048;-60
2023/08/31 02:24:06;;;;;;;2.15;0.73;;;;;;;;;;5046777;28;20051;-61
2023/08/31 02:26:33;;;;;;;1.50;0.70;;;;;;;;;;5052608;28;20055;-60
2023/08/31 02:28:59;;;;;;;1.58;0.80;;;;;;;;;;5050799;28;20389;-61
2023/08/31 02:31:25;;;;;;;1.98;0.90;;;;;;;;;;5052042;28;20584;-61
2023/08/31 02:33:53;;;;;;;4.97;1.25;;;;;;;;;;5051142;28;20131;-61
2023/08/31 02:36:23;;;;;;;5.00;0.82;;;;;;;;;;5070582;28;20044;-60
2023/08/31 02:38:50;;;;;;;4.32;0.70;;;;;;;;;;5036462;28;20060;-61
2023/08/31 02:41:17;;;;;;;2.63;0.90;;;;;;;;;;5068780;28;20052;-63
2023/08/31 02:43:43;;;;;;;1.75;0.82;;;;;;;;;;5050362;28;20155;-61
2023/08/31 02:46:09;;;;;;;2.45;0.73;;;;;;;;;;5055891;28;20153;-60
2023/08/31 02:48:35;;;;;;;3.85;1.33;;;;;;;;;;5055204;28;20442;-60
2023/08/31 02:51:02;;;;;;;8.85;1.10;;;;;;;;;;5069896;28;20041;-59
2023/08/31 02:53:28;;;;;;;4.18;1.13;;;;;;;;;;5053480;28;20052;-60
2023/08/31 02:55:55;;;;;;;5.38;1.27;;;;;;;;;;5070183;28;20504;-60
2023/08/31 02:58:21;;;;;;;3.85;1.20;;;;;;;;;;5016558;28;20085;-60
2023/08/31 03:00:48;;;;;;;5.50;2.70;;;;;;;;;;5051625;28;20041;-59
2023/08/31 03:03:17;;;;;;;6.25;1.95;;;;;;;;;;5069041;28;20048;-60
2023/08/31 03:05:44;;;;;;;5.00;2.13;;;;;;;;;;5055676;28;20074;-60
2023/08/31 03:08:10;;;;;;;4.80;2.50;;;;;;;;;;5070661;28;20053;-59
2023/08/31 03:10:37;;;;;;;6.20;2.85;;;;;;;;;;5052720;28;20048;-60
2023/08/31 03:13:03;;;;;;;10.32;3.35;;;;;;;;;;5054525;28;20059;-61
2023/08/31 03:15:29;;;;;;;7.65;3.40;;;;;;;;;;5073949;28;20089;-60
2023/08/31 03:17:55;;;;;;;5.40;3.47;;;;;;;;;;5074626;28;20041;-60
2023/08/31 03:20:21;;;;;;;7.72;4.38;;;;;;;;;;5074238;28;20041;-60
2023/08/31 03:22:47;;;;;;;9.95;4.50;;;;;;;;;;5054794;28;20084;-60
2023/08/31 03:25:14;;;;;;;9.40;5.40;;;;;;;;;;5052942;28;20127;-59
2023/08/31 03:27:40;;;;;;;8.88;5.32;;;;;;;;;;5071907;28;20579;-60
2023/08/31 03:30:06;;;;;;;9.65;6.00;;;;;;;;;;5055334;28;20557;-59
2023/08/31 03:32:32;;;;;;;16.48;7.00;;;;;;;;;;5055059;28;20456;-60
2023/08/31 03:34:58;;;;;;;12.48;6.80;;;;;;;;;;5036732;28;20076;-61
2023/08/31 03:37:24;;;;;;;12.68;7.22;;;;;;;;;;5072499;28;20408;-60
2023/08/31 03:39:50;;;;;;;13.45;7.45;;;;;;;;;;5073362;28;20385;-60
2023/08/31 03:42:16;;;;;;;8.40;6.38;;;;;;;;;;5053909;28;20482;-61
2023/08/31 03:44:42;;;;;;;11.25;7.53;;;;;;;;;;5072163;28;20048;-59
2023/08/31 03:47:09;;;;;;;10.27;7.03;;;;;;;;;;5053559;28;20096;-60
2023/08/31 03:49:34;;;;;;;9.90;6.07;;;;;;;;;;5053853;28;20080;-60
2023/08/31 03:52:01;;;;;;;11.65;5.97;;;;;;;;;;5071857;28;20102;-60
2023/08/31 03:54:27;;;;;;;12.73;6.13;;;;;;;;;;5072887;28;20132;-60
2023/08/31 03:56:53;;;;;;;11.77;6.07;;;;;;;;;;5073511;28;20076;-62
2023/08/31 03:59:19;;;;;;;10.65;5.40;;;;;;;;;;5072995;28;20044;-60
2023/08/31 04:01:46;;;;;;;9.77;5.70;;;;;;;;;;5071190;28;20041;-63
2023/08/31 04:04:12;;;;;;;10.10;5.40;;;;;;;;;;5070990;28;20060;-60
2023/08/31 04:06:38;;;;;;;8.18;5.30;;;;;;;;;;5051439;28;20052;-60
2023/08/31 04:09:04;;;;;;;12.73;5.28;;;;;;;;;;5038159;28;20506;-61
2023/08/31 04:11:31;;;;;;;8.75;4.90;;;;;;;;;;5038252;28;20044;-61
2023/08/31 04:13:57;;;;;;;8.02;4.45;;;;;;;;;;5072384;28;20052;-60
2023/08/31 04:16:23;;;;;;;9.02;4.00;;;;;;;;;;5055409;28;20052;-60
2023/08/31 04:18:51;;;;;;;10.88;3.90;;;;;;;;;;5072530;28;20059;-60
2023/08/31 04:21:20;;;;;;;11.40;4.63;;;;;;;;;;5070557;28;20049;-60
2023/08/31 04:23:46;;;;;;;7.90;3.28;;;;;;;;;;5070092;28;20037;-60
2023/08/31 04:26:13;;;;;;;8.90;3.38;;;;;;;;;;5053733;28;20045;-59
2023/08/31 04:28:42;;;;;;;10.27;4.25;;;;;;;;;;5072615;28;20123;-60
2023/08/31 04:31:08;;;;;;;10.30;4.13;;;;;;;;;;5072263;28;20052;-60
2023/08/31 04:33:35;;;;;;;7.68;3.55;;;;;;;;;;5052286;28;20049;-61
2023/08/31 04:36:01;;;;;;;7.18;3.45;;;;;;;;;;5071225;28;20047;-60
2023/08/31 04:38:28;;;;;;;6.47;3.83;;;;;;;;;;5072221;28;20514;-60
2023/08/31 04:40:54;;;;;;;8.55;3.90;;;;;;;;;;5071634;28;20492;-60
2023/08/31 04:43:20;;;;;;;10.02;4.05;;;;;;;;;;5069758;28;20492;-60
2023/08/31 04:45:46;;;;;;;8.80;3.92;;;;;;;;;;5071382;28;20051;-60
2023/08/31 04:48:14;;;;;;;9.65;4.25;;;;;;;;;;5069943;28;20484;-60
2023/08/31 04:50:40;;;;;;;10.07;4.05;;;;;;;;;;5053124;28;20155;-60
2023/08/31 04:53:06;;;;;;;10.35;4.07;;;;;;;;;;5071868;28;20044;-61
2023/08/31 04:55:32;;;;;;;10.95;4.32;;;;;;;;;;5053885;28;20049;-60
2023/08/31 04:57:58;;;;;;;12.27;4.35;;;;;;;;;;5072102;28;20032;-60
2023/08/31 05:00:24;;;;;;;10.10;3.55;;;;;;;;;;5051132;28;20033;-60
2023/08/31 05:02:50;;;;;;;6.57;3.45;;;;;;;;;;5052758;28;20037;-60
2023/08/31 05:05:18;;;;;;;5.95;3.20;;;;;;;;;;5067105;28;20401;-60
2023/08/31 05:07:44;;;;;;;8.77;3.50;;;;;;;;;;5038573;28;20083;-60
2023/08/31 05:10:11;;;;;;;8.40;4.00;;;;;;;;;;5070779;28;20500;-60
2023/08/31 05:12:37;;;;;;;7.95;4.00;;;;;;;;;;5071618;28;20044;-61
2023/08/31 05:15:04;;;;;;;8.15;3.33;;;;;;;;;;5053256;28;20040;-61
2023/08/31 05:17:30;;;;;;;8.38;3.60;;;;;;;;;;5072154;28;20052;-60
2023/08/31 05:19:56;;;;;;;6.10;3.33;;;;;;;;;;5036441;28;20654;-60
2023/08/31 05:22:23;;;;;;;8.10;3.30;;;;;;;;;;5054109;28;20063;-60
2023/08/31 05:24:49;;;;;;;8.63;3.22;;;;;;;;;;5069354;28;20040;-60
2023/08/31 05:27:15;;;;;;;5.82;3.00;;;;;;;;;;5053386;28;20036;-60
2023/08/31 05:29:41;;;;;;;7.85;3.22;;;;;;;;;;5069794;28;20044;-60
2023/08/31 05:32:07;;;;;;;9.13;3.03;;;;;;;;;;5067860;28;20139;-60
2023/08/31 05:34:37;;;;;;;6.70;3.17;;;;;;;;;;5067392;28;20047;-61
2023/08/31 05:37:04;;;;;;;6.38;2.92;;;;;;;;;;5070467;28;20412;-62
2023/08/31 05:39:31;;;;;;;8.27;3.35;;;;;;;;;;5035874;28;20048;-60
2023/08/31 05:41:57;;;;;;;3.72;2.45;;;;;;;;;;5053520;28;20396;-59
2023/08/31 05:44:23;;;;;;;6.63;2.55;;;;;;;;;;5067395;28;20569;-60
2023/08/31 05:46:49;;;;;;;9.27;3.85;;;;;;;;;;5051538;28;20044;-60
2023/08/31 05:49:15;;;;;;;8.75;2.83;;;;;;;;;;5069542;28;20051;-60
2023/08/31 05:51:41;;;;;;;8.30;2.30;;;;;;;;;;5069329;28;20048;-60
2023/08/31 05:54:11;;;;;;;4.95;2.22;;;;;;;;;;5053054;28;20131;-60
2023/08/31 05:56:39;;;;;;;6.30;2.30;;;;;;;;;;5071777;28;20092;-60
2023/08/31 05:59:05;;;;;;;4.25;2.08;;;;;;;;;;5071530;28;20049;-60
2023/08/31 06:01:31;;;;;;;6.95;1.92;;;;;;;;;;5051505;28;20131;-60
2023/08/31 06:03:57;;;;;;;4.55;1.38;;;;;;;;;;5071017;28;20447;-60
2023/08/31 06:06:23;;;;;;;12.65;2.30;;;;;;;;;;5053000;28;20052;-60
2023/08/31 06:08:50;;;;;;;17.23;2.58;;;;;;;;;;5053037;28;20059;-60
2023/08/31 06:11:16;;;;;;;24.35;3.35;;;;;;;;;;5025837;28;20393;-60
2023/08/31 06:13:42;;;;;;;19.70;3.03;;;;;;;;;;5061582;28;20051;-61
2023/08/31 06:16:08;;;;;;;17.00;2.65;;;;;;;;;;5045811;28;20174;-60
2023/08/31 06:18:34;;;;;;;9.38;2.10;;;;;;;;;;5068049;28;20041;-62
2023/08/31 06:21:01;;;;;;;11.30;2.05;;;;;;;;;;5049430;28;20052;-61
2023/08/31 06:23:27;;;;;;;6.68;2.08;;;;;;;;;;5069274;28;20036;-61
2023/08/31 06:25:53;;;;;;;8.05;1.90;;;;;;;;;;5053187;28;20049;-61
2023/08/31 06:28:19;;;;;;;3.00;1.60;;;;;;;;;;5052449;28;20052;-61
2023/08/31 06:30:48;;;;;;;5.93;1.60;;;;;;;;;;5069148;28;20486;-61
2023/08/31 06:33:17;;;;;;;9.60;1.40;;;;;;;;;;5065699;28;20123;-60
2023/08/31 06:35:43;;;;;;;5.07;2.15;;;;;;;;;;5045071;28;20178;-61
2023/08/31 06:38:09;;;;;;;4.25;1.30;;;;;;;;;;5067750;28;20041;-61
2023/08/31 06:40:35;;;;;;;5.28;1.55;;;;;;;;;;5047719;28;20507;-61
2023/08/31 06:43:03;;;;;;;4.72;1.58;;;;;;;;;;5069098;28;20427;-61
2023/08/31 06:45:29;;;;;;;4.20;1.70;;;;;;;;;;5051753;28;20381;-61
2023/08/31 06:47:55;;;;;;;3.80;1.38;;;;;;;;;;5067560;28;20119;-61
2023/08/31 06:50:21;;;;;;;4.85;1.10;;;;;;;;;;5048507;28;20154;-62
2023/08/31 06:52:47;;;;;;;4.18;1.27;;;;;;;;;;5050350;28;20055;-61
2023/08/31 06:55:13;;;;;;;6.35;1.20;;;;;;;;;;5057646;28;20443;-60
2023/08/31 06:57:39;;;;;;;5.05;1.75;;;;;;;;;;5054858;28;20045;-61
2023/08/31 07:00:08;;;;;;;4.57;1.48;;;;;;;;;;5054723;28;20094;-61
2023/08/31 07:02:34;;;;;;;5.40;1.05;;;;;;;;;;5072697;28;20041;-61
2023/08/31 07:05:01;;;;;;;9.38;1.83;;;;;;;;;;5074014;28;20036;-61
2023/08/31 07:07:27;;;;;;;5.47;1.20;;;;;;;;;;5072603;28;20096;-60
2023/08/31 07:09:54;;;;;;;5.63;1.10;;;;;;;;;;5073238;28;20488;-61
2023/08/31 07:12:20;;;;;;;4.68;1.48;;;;;;;;;;5073249;28;20051;-60
2023/08/31 07:14:46;;;;;;;3.35;0.82;;;;;;;;;;5074119;28;20048;-61
2023/08/31 07:17:19;;;;;;;4.55;0.77;;;;;;;;;;5067787;28;20140;-67
2023/08/31 07:19:45;;;;;;;5.65;1.08;;;;;;;;;;5030983;28;20077;-68
2023/08/31 07:22:12;;;;;;;6.45;0.88;;;;;;;;;;5055547;28;20051;-68
2023/08/31 07:24:38;;;;;;;7.35;1.20;;;;;;;;;;5056004;28;20048;-68
2023/08/31 07:27:04;;;;;;;5.93;0.98;;;;;;;;;;5053123;28;20045;-68
2023/08/31 07:29:31;;;;;;;4.05;0.82;;;;;;;;;;5050193;28;20477;-68
2023/08/31 07:31:57;;;;;;;3.67;1.00;;;;;;;;;;5071377;28;20485;-66
2023/08/31 07:34:24;;;;;;;4.93;1.25;;;;;;;;;;5061497;28;20045;-67
2023/08/31 07:36:50;;;;;;;3.40;0.70;;;;;;;;;;5053456;28;20056;-72
2023/08/31 07:39:19;;;;;;;3.72;0.80;;;;;;;;;;5028270;28;20178;-67
2023/08/31 07:41:45;;;;;;;4.30;1.10;;;;;;;;;;5055023;28;20131;-67
2023/08/31 07:44:11;;;;;;;2.83;0.68;;;;;;;;;;5073189;28;20044;-67
2023/08/31 07:46:37;;;;;;;4.15;0.85;;;;;;;;;;5069340;28;20039;-67
2023/08/31 07:49:04;;;;;;;2.67;0.85;;;;;;;;;;5051248;28;20044;-67
2023/08/31 07:51:30;;;;;;;1.42;0.50;;;;;;;;;;5058036;28;20063;-67
2023/08/31 07:53:56;;;;;;;5.93;0.93;;;;;;;;;;5055373;28;20552;-67
2023/08/31 07:56:23;;;;;;;3.60;0.50;;;;;;;;;;5034927;28;20613;-67
2023/08/31 07:58:50;;;;;;;3.35;0.68;;;;;;;;;;5064304;28;20433;-68
2023/08/31 08:01:17;;;;;;;2.67;0.70;;;;;;;;;;5055737;28;20053;-67
2023/08/31 08:03:43;;;;;;;2.45;0.40;;;;;;;;;;5073837;28;20173;-67
2023/08/31 08:06:09;;;;;;;1.92;0.68;;;;;;;;;;5069503;28;20048;-67
2023/08/31 08:08:36;;;;;;;3.25;0.80;;;;;;;;;;5019278;28;20045;-67
2023/08/31 08:11:04;;;;;;;4.95;1.10;;;;;;;;;;5053283;28;20045;-67
2023/08/31 08:13:30;;;;;;;3.92;0.63;;;;;;;;;;5053215;28;20055;-67
2023/08/31 08:15:56;;;;;;;2.15;0.52;;;;;;;;;;5063023;28;20056;-67
2023/08/31 08:18:22;;;;;;;2.35;0.63;;;;;;;;;;5071890;28;20063;-68
2023/08/31 08:20:49;;;;;;;2.90;0.60;;;;;;;;;;5028206;28;20063;-67
2023/08/31 08:23:15;;;;;;;2.75;0.80;;;;;;;;;;5053561;28;20124;-67
2023/08/31 08:25:41;;;;;;;1.65;0.40;;;;;;;;;;5068294;28;20381;-66
2023/08/31 08:28:07;;;;;;;2.35;0.40;;;;;;;;;;5071591;28;20037;-68
2023/08/31 08:30:33;;;;;;;5.40;0.80;;;;;;;;;;5055126;28;20484;-67
2023/08/31 08:32:59;;;;;;;1.98;0.50;;;;;;;;;;5055421;28;20052;-67
2023/08/31 08:35:25;;;;;;;2.78;0.63;;;;;;;;;;5071638;28;20040;-67
2023/08/31 08:37:52;;;;;;;1.83;0.50;;;17.30;99.90;;;;;;5071297;28;20089;-68
2023/08/31 08:40:18;;;;;;;4.00;0.50;;;;;;;;;;5053872;28;20078;-67
2023/08/31 08:42:47;;;;;;;2.85;0.50;;;17.90;99.90;;;;;;5055141;28;20106;-67
2023/08/31 08:45:16;;;;;;;2.60;0.50;;;;;;;;;;5071966;28;20455;-67
2023/08/31 08:47:46;;;;;;;1.70;0.75;;;18.30;99.90;;;;;;5063291;28;20040;-67
2023/08/31 08:50:13;;;;;;;1.48;0.43;;;;;;;;;;5054810;28;20040;-67
2023/08/31 08:52:42;;;;;;;1.88;0.57;;;18.40;99.90;;;;;;5059243;28;20072;-67
2023/08/31 08:55:09;;;;;;;1.40;0.50;;;;;;;;;;5071840;28;20101;-66
2023/08/31 08:57:35;;;;;;;2.65;0.65;;;;;;;;;;5054567;28;20048;-67
2023/08/31 09:00:03;;;;;;;2.55;0.68;;;;;;;;;;5054002;28;20045;-67
2023/08/31 09:02:29;;;;;;;1.85;0.55;;;;;;;;;;5072639;28;20143;-65
2023/08/31 09:04:55;;;;;;;3.40;0.60;;;;;;;;;;5071482;28;20460;-62
2023/08/31 09:07:22;;;;;;;1.92;0.60;;;;;;;;;;5036668;28;20412;-61
2023/08/31 09:09:55;;;;;;;3.50;0.70;;;;;;;;;;5071475;28;20104;-60
2023/08/31 09:12:24;;;;;;;1.10;0.32;;;18.40;99.90;;;;;;5071651;28;20048;-60
2023/08/31 09:15:00;;;;;;;1.50;0.50;;;18.20;99.90;;;;;;5072303;28;20087;-60
2023/08/31 09:17:27;;;;;;;0.82;0.40;;;;;;;;;;5069778;28;20037;-60
2023/08/31 09:20:00;;;;;;;2.05;0.40;;;18.50;99.90;;;;;;5020667;28;20058;-60
2023/08/31 09:22:27;;;;;;;1.77;0.65;;;;;;;;;;5052040;28;20130;-60
2023/08/31 09:24:52;;;;;;;3.45;0.80;;;18.80;99.90;;;;;;5054650;28;20127;-60
2023/08/31 09:27:20;;;;;;;1.35;0.60;;;18.90;99.90;;;;;;5053431;28;20128;-60
2023/08/31 09:29:47;;;;;;;1.50;0.50;;;;;;;;;;5054298;28;20123;-59
2023/08/31 09:32:19;;;;;;;4.75;0.93;;;;;;;;;;5070716;28;20481;-60
2023/08/31 09:34:45;;;;;;;3.00;0.73;;;19.10;99.90;;;;;;5071953;28;20059;-60
2023/08/31 09:37:11;;;;;;;3.70;0.63;;;;;;;;;;5051256;28;20041;-60
2023/08/31 09:39:38;;;;;;;6.28;0.70;;;;;;;;;;5071436;28;20041;-60
2023/08/31 09:42:04;;;;;;;3.08;0.70;;;;;;;;;;5052000;28;20139;-61
2023/08/31 09:44:30;;;;;;;2.33;0.60;;;;;;;;;;5036356;28;20048;-60
2023/08/31 09:46:57;;;;;;;1.73;0.50;;;;;;;;;;5053911;28;20072;-61
2023/08/31 09:49:24;;;;;;;2.05;0.43;;;;;;;;;;5071572;28;20059;-60
2023/08/31 09:51:50;;;;;;;3.95;0.57;;;;;;;;;;5054115;28;20048;-60
2023/08/31 09:54:18;;;;;;;3.85;0.90;;;;;;;;;;5069273;28;20052;-60
2023/08/31 09:56:45;;;;;;;2.25;0.63;;;;;;;;;;5070065;28;20080;-60
2023/08/31 09:59:11;;;;;;;2.13;0.50;;;;;;;;;;5051215;28;20059;-60
2023/08/31 10:01:38;;;;;;;1.50;0.47;;;;;;;;;;5053506;28;22015;-59
2023/08/31 10:04:05;;;;;;;2.70;0.43;;;;;;;;;;5066783;28;20076;-60
2023/08/31 10:06:32;;;;;;;3.42;0.90;;;;;;;;;;5070032;28;20054;-71
2023/08/31 10:08:59;;;;;;;2.60;0.82;;;18.00;99.90;;;;;;5050489;28;20447;-70
2023/08/31 10:11:25;;;;;;;4.28;1.23;;;;;;;;;;5050193;28;20045;-70
2023/08/31 10:13:56;;;;;;;4.15;0.90;;;;;;;;;;5037518;28;20389;-70
2023/08/31 10:16:22;;;;;;;3.28;0.75;;;;;;;;;;5035658;28;20049;-69
2023/08/31 10:18:49;;;;;;;6.05;1.10;;;;;;;;;;5053884;28;20087;-69
2023/08/31 10:21:20;;;;;;;2.83;0.82;;;17.90;99.90;;;;;;5036062;28;20045;-71
2023/08/31 10:23:47;;;;;;;4.55;0.82;;;;;;;;;;5021409;28;20055;-70
2023/08/31 10:26:33;;;;;;;2.88;0.70;;;18.40;99.90;;;;;;5071039;28;20048;-69
2023/08/31 10:29:02;;;;;;;1.63;0.57;;;;;;;;;;5057954;28;20050;-70
2023/08/31 10:31:30;;;;;;;1.67;0.40;;;;;;;;;;5037076;28;20515;-71
2023/08/31 10:34:00;;;;;;;4.75;0.95;;;;;;;;;;5073349;28;20094;-70
2023/08/31 10:36:45;;;;;;;1.88;0.90;;;18.90;99.90;;;;;;5037856;28;20082;-69
2023/08/31 10:39:21;;;;;;;3.28;0.50;;;18.90;99.90;;;;;;5038168;28;20515;-70
2023/08/31 10:41:55;;;;;;;3.10;0.80;;;18.90;99.90;;;;;;5073485;28;20055;-70
2023/08/31 10:44:28;;;;;;;5.75;1.05;;;18.90;99.90;;;;;;5045734;28;20037;-70
2023/08/31 10:46:54;;;;;;;6.05;1.23;;;;;;;;;;5074742;28;20045;-70
2023/08/31 10:49:23;;;;;;;3.75;0.70;;;19.00;99.90;;;;;;5052294;28;20528;-70
2023/08/31 10:51:50;;;;;;;2.70;0.88;;;18.90;99.90;;;;;;5042036;28;20044;-70
2023/08/31 10:54:16;;;;;;;1.42;0.60;;;;;;;;;;5055318;28;20040;-71
2023/08/31 10:56:55;;;;;;;2.60;0.70;;;;;;;;;;5072780;28;20062;-71
2023/08/31 10:59:23;;;;;;;3.37;0.80;;;;;;;;;;5034051;28;20399;-70
2023/08/31 11:01:55;;;;;;;1.95;0.70;;;;;;;;;;5031119;28;20044;-71
2023/08/31 11:04:21;;;;;;;1.48;0.70;;;;;;;;;;5045407;28;20128;-70
2023/08/31 11:06:48;;;;;;;2.33;0.60;;;;;;;;;;5044528;28;20123;-70
2023/08/31 11:09:23;;;;;;;4.13;0.70;;;;;;;;;;5032284;28;20443;-71
2023/08/31 11:11:49;;;;;;;4.45;1.98;;;;;;;;;;5047904;28;20108;-71
2023/08/31 11:14:16;;;;;;;2.10;0.60;;;;;;;;;;5044047;28;20048;-71
2023/08/31 11:16:43;;;;;;;4.15;0.80;;;;;;;;;;5034140;28;20041;-70
2023/08/31 11:19:09;;;;;;;3.03;0.80;;;;;;;;;;5029363;28;20052;-71
2023/08/31 11:21:37;;;;;;;5.10;0.90;;;;;;;;;;5048514;28;20473;-71
2023/08/31 11:24:03;;;;;;;4.47;1.13;;;;;;;;;;5049356;28;20040;-72
2023/08/31 11:26:33;;;;;;;4.85;0.90;;;;;;;;;;5063166;28;20048;-71
2023/08/31 11:28:59;;;;;;;3.90;0.93;;;;;;;;;;5038942;28;20496;-70
2023/08/31 11:31:25;;;;;;;3.40;1.00;;;;;;;;;;5056168;28;20044;-71
2023/08/31 11:33:54;;;;;;;3.88;0.93;;;;;;;;;;5073567;28;20044;-69
2023/08/31 11:36:20;;;;;;;7.68;1.30;;;;;;;;;;5054857;28;20557;-69
2023/08/31 11:38:50;;;;;;;4.93;0.75;;;;;;;;;;5037494;28;20052;-69
2023/08/31 11:41:16;;;;;;;4.68;0.70;;;;;;;;;;5033225;28;20115;-68
2023/08/31 11:43:42;;;;;;;5.35;0.80;;;;;;;;;;5068123;28;20051;-67
2023/08/31 11:46:09;;;;;;;3.40;0.93;;;;;;;;;;5055443;28;20080;-67
2023/08/31 11:48:36;;;;;;;3.53;0.80;;;;;;;;;;5055271;28;20043;-68
2023/08/31 11:51:02;;;;;;;5.13;0.98;;;;;;;;;;5054652;28;20044;-70
2023/08/31 11:53:29;;;;;;;4.47;0.73;;;;;;;;;;5054379;28;20040;-60
2023/08/31 11:55:55;;;;;;;3.08;0.95;;;;;;;;;;5056192;28;20045;-60
2023/08/31 11:58:24;;;;;;;2.08;0.95;;;;;;;;;;5074316;28;20147;-60
2023/08/31 12:01:08;;;;;;;9.65;1.13;;;;;;;;;;5053763;28;20079;-60
2023/08/31 12:03:47;;;;;;;3.63;0.90;;;;;;;;;;5073372;28;20044;-60
2023/08/31 12:06:16;;;;;;;3.13;1.08;;;;;;;;;;5055088;28;20456;-60
2023/08/31 12:08:43;;;;;;;2.45;0.90;;;;;;;;;;5054356;28;20051;-60
2023/08/31 12:11:09;;;;;;;4.65;0.70;;;;;;;;;;5050356;28;20198;-60
2023/08/31 12:13:35;;;;;;;5.40;0.98;;;;;;;;;;5071693;28;20079;-60
2023/08/31 12:16:01;;;;;;;4.90;1.20;;;;;;;;;;5072175;28;20381;-61
2023/08/31 12:18:33;;;;;;;3.75;1.25;;;;;;;;;;5070385;28;20044;-60
2023/08/31 12:20:59;;;;;;;3.15;1.27;;;;;;;;;;5052904;28;20055;-60
2023/08/31 12:23:25;;;;;;;3.38;1.10;;;;;;;;;;5054719;28;20082;-61
2023/08/31 12:25:52;;;;;;;3.65;0.70;;;;;;;;;;5052208;28;20518;-61
2023/08/31 12:28:21;;;;;;;4.68;0.80;;;;;;;;;;5053939;28;20052;-60
2023/08/31 12:30:48;;;;;;;6.53;1.30;;;;;;;;;;5053723;28;20548;-60
2023/08/31 12:33:14;;;;;;;3.95;1.33;;;;;;;;;;5072840;28;20044;-60
2023/08/31 12:35:41;;;;;;;7.38;1.00;;;;;;;;;;5052514;28;20106;-61
2023/08/31 12:38:07;;;;;;;3.22;1.08;;;;;;;;;;5069752;28;20154;-60
2023/08/31 12:40:33;;;;;;;5.28;0.75;;;;;;;;;;5055443;28;20044;-60
2023/08/31 12:42:59;;;;;;;4.28;0.80;;;;;;;;;;5067799;28;20056;-61
2023/08/31 12:45:25;;;;;;;3.47;0.88;;;;;;;;;;5040469;28;20037;-60
2023/08/31 12:47:52;;;;;;;3.38;0.80;;;;;;;;;;5069650;28;20041;-61
2023/08/31 12:50:18;;;;;;;3.40;0.77;;;;;;;;;;5054347;28;20052;-61
2023/08/31 12:52:45;;;;;;;3.70;0.73;;;;;;;;;;5053887;28;20041;-60
2023/08/31 12:55:15;;;;;;;2.92;0.65;;;;;;;;;;5054098;28;20044;-60
2023/08/31 12:57:41;;;;;;;2.85;0.82;;;;;;;;;;5038430;28;20048;-60
2023/08/31 13:00:14;;;;;;;4.43;1.00;;;;;;;;;;5071490;28;20044;-60
2023/08/31 13:02:40;;;;;;;5.43;1.10;;;;;;;;;;5036419;28;20048;-60
2023/08/31 13:05:07;;;;;;;5.30;2.15;;;;;;;;;;5053300;28;20106;-60
2023/08/31 13:07:36;;;;;;;6.03;1.20;;;;;;;;;;5053414;28;20048;-60
2023/08/31 13:10:06;;;;;;;7.60;1.08;;;;;;;;;;5064149;28;20496;-61
2023/08/31 13:12:33;;;;;;;6.25;0.98;;;;;;;;;;5072334;28;20119;-60
2023/08/31 13:15:00;;;;;;;4.05;1.10;;;;;;;;;;5054533;28;20045;-60
2023/08/31 13:17:29;;;;;;;8.85;0.90;;;;;;;;;;5072191;28;20048;-59
2023/08/31 13:19:56;;;;;;;7.07;1.80;;;;;;;;;;5062955;28;20412;-60
2023/08/31 13:22:22;;;;;;;4.25;1.00;;;;;;;;;;5071956;28;20254;-60
2023/08/31 13:24:48;;;;;;;6.15;0.80;;;;;;;;;;5072224;28;20075;-59
2023/08/31 13:27:14;;;;;;;4.50;1.65;;;;;;;;;;5049532;28;20098;-60
2023/08/31 13:29:40;;;;;;;2.53;0.63;;;;;;;;;;5041774;28;20184;-60
2023/08/31 13:32:07;;;;;;;7.10;1.77;;;;;;;;;;5070476;28;20060;-60
2023/08/31 13:34:35;;;;;;;5.65;1.20;;;;;;;;;;5072037;28;20063;-59
2023/08/31 13:37:01;;;;;;;4.47;1.02;;;;;;;;;;5070963;28;20040;-60
2023/08/31 13:39:27;;;;;;;4.95;1.08;;;;;;;;;;5054160;28;20065;-59
2023/08/31 13:41:53;;;;;;;3.17;0.88;;;;;;;;;;5071075;28;20052;-60
2023/08/31 13:44:25;;;;;;;7.43;1.00;;;;;;;;;;5071490;28;20048;-60
2023/08/31 13:46:51;;;;;;;6.03;1.40;;;;;;;;;;5070500;28;20481;-59
2023/08/31 13:49:17;;;;;;;6.25;1.10;;;;;;;;;;5070587;28;20492;-62
2023/08/31 13:51:45;;;;;;;3.80;1.10;;;;;;;;;;5053833;28;20048;-61
2023/08/31 13:54:11;;;;;;;8.73;1.45;;;;;;;;;;5070601;28;20460;-60
2023/08/31 13:56:37;;;;;;;8.98;1.83;;;;;;;;;;5053279;28;20048;-59
2023/08/31 13:59:03;;;;;;;4.93;1.38;;;;;;;;;;5068485;28;20079;-61
2023/08/31 14:01:30;;;;;;;6.15;1.05;;;;;;;;;;5070226;28;20519;-59
2023/08/31 14:03:56;;;;;;;6.68;1.40;;;;;;;;;;5066093;28;20041;-59
2023/08/31 14:06:22;;;;;;;5.72;1.00;;;;;;;;;;5068109;28;20060;-60
2023/08/31 14:08:48;;;;;;;4.35;0.88;;;;;;;;;;5071168;28;20535;-59
2023/08/31 14:11:14;;;;;;;3.13;0.95;;;;;;;;;;5069014;28;20206;-59
2023/08/31 14:13:40;;;;;;;3.47;0.80;;;;;;;;;;5051659;28;20056;-59
2023/08/31 14:16:07;;;;;;;6.53;1.00;;;;;;;;;;5070396;28;20037;-59
2023/08/31 14:18:33;;;;;;;4.90;1.10;;;;;;;;;;5071658;28;20127;-61
2023/08/31 14:21:00;;;;;;;6.57;0.77;;;;;;;;;;5070579;28;20556;-60
2023/08/31 14:23:26;;;;;;;3.25;0.95;;;;;;;;;;5060957;28;20116;-67
2023/08/31 14:25:52;;;;;;;4.68;0.80;;;;;;;;;;5070296;28;20049;-61
2023/08/31 14:28:18;;;;;;;3.03;0.93;;;;;;;;;;5068627;28;20540;-61
2023/08/31 14:30:45;;;;;;;4.47;1.60;;;;;;;;;;5034105;28;20135;-68
2023/08/31 14:33:11;;;;;;;9.55;0.80;;;;;;;;;;5052817;28;20079;-68
2023/08/31 14:35:37;;;;;;;5.53;0.77;;;;;;;;;;5051181;28;20075;-69